Time;durP1;ratioP1;P1;durP2;ratioP2;P2;SDS_P1;SDS_P2;PMS_P1;PMS_P2;Temp;Humidity;BMP_temperature;BMP_pressure;BME280_temperature;BME280_humidity;BME280_pressure;Samples;Min_cycle;Max_cycle;Signal;HPM_P1;HPM_P2
2022/01/07 00:00:32;;;;;;;18.73;3.40;;;23.90;99.90;;;;;;5075244;28;20189;-80
2022/01/07 00:03:02;;;;;;;17.00;3.60;;;23.90;99.90;;;;;;5087711;28;20216;-79
2022/01/07 00:05:34;;;;;;;16.90;3.20;;;23.90;99.90;;;;;;5080214;28;20213;-80
2022/01/07 00:08:07;;;;;;;15.50;2.90;;;24.00;99.90;;;;;;5068885;28;20205;-79
2022/01/07 00:10:37;;;;;;;20.60;3.25;;;24.00;99.90;;;;;;5078641;28;20278;-80
2022/01/07 00:13:08;;;;;;;24.17;3.85;;;24.00;99.90;;;;;;5079373;28;20185;-81
2022/01/07 00:15:39;;;;;;;23.25;3.75;;;23.90;99.90;;;;;;5075671;28;20185;-79
2022/01/07 00:18:10;;;;;;;18.65;3.55;;;23.90;99.90;;;;;;5076373;28;20193;-81
2022/01/07 00:20:41;;;;;;;20.65;3.83;;;23.90;99.90;;;;;;5077622;28;20189;-79
2022/01/07 00:23:14;;;;;;;29.83;3.80;;;23.90;99.90;;;;;;5075794;28;20703;-79
2022/01/07 00:25:45;;;;;;;20.27;3.80;;;23.90;99.90;;;;;;5085762;28;20189;-79
2022/01/07 00:28:16;;;;;;;21.70;3.85;;;23.90;99.90;;;;;;5075056;28;20583;-79
2022/01/07 00:30:46;;;;;;;26.45;4.35;;;24.00;99.90;;;;;;5074571;28;20192;-79
2022/01/07 00:33:17;;;;;;;28.17;4.40;;;24.00;99.90;;;;;;5073254;28;20192;-79
2022/01/07 00:35:48;;;;;;;21.33;3.83;;;24.00;99.90;;;;;;5066134;28;20185;-80
2022/01/07 00:38:20;;;;;;;24.02;4.03;;;24.00;99.90;;;;;;5069177;28;20192;-79
2022/01/07 00:40:51;;;;;;;22.52;3.78;;;24.00;99.90;;;;;;5075964;28;20216;-81
2022/01/07 00:43:22;;;;;;;21.73;4.00;;;24.00;99.90;;;;;;5077711;28;20197;-80
2022/01/07 00:45:53;;;;;;;25.15;4.07;;;24.00;99.90;;;;;;5078327;28;20196;-80
2022/01/07 00:48:23;;;;;;;25.30;4.28;;;24.00;99.90;;;;;;5075430;28;20734;-78
2022/01/07 00:50:54;;;;;;;23.75;4.30;;;24.00;99.90;;;;;;5075110;28;20205;-81
2022/01/07 00:53:26;;;;;;;27.55;4.38;;;24.00;99.90;;;;;;5075046;28;20189;-80
2022/01/07 00:55:57;;;;;;;20.98;3.53;;;24.00;99.90;;;;;;5087797;28;20640;-79
2022/01/07 00:58:28;;;;;;;27.38;4.03;;;24.00;99.90;;;;;;5074735;28;20188;-82
2022/01/07 01:00:59;;;;;;;27.85;4.53;;;24.10;99.90;;;;;;5072574;28;20205;-80
2022/01/07 01:03:29;;;;;;;28.05;4.28;;;24.00;99.90;;;;;;5072141;28;20205;-80
2022/01/07 01:06:00;;;;;;;25.10;4.07;;;24.10;99.90;;;;;;5070812;28;20602;-80
2022/01/07 01:08:33;;;;;;;26.55;4.30;;;24.10;99.90;;;;;;5074734;28;20209;-80
2022/01/07 01:11:04;;;;;;;26.08;4.70;;;24.10;99.90;;;;;;5072970;28;20185;-79
2022/01/07 01:13:34;;;;;;;30.73;4.57;;;24.10;99.90;;;;;;5072940;28;20615;-80
2022/01/07 01:16:06;;;;;;;26.02;4.68;;;24.10;99.90;;;;;;5076932;28;20629;-80
2022/01/07 01:18:37;;;;;;;26.10;4.05;;;24.10;99.90;;;;;;5078684;28;20294;-78
2022/01/07 01:21:08;;;;;;;25.08;4.15;;;24.30;99.90;;;;;;5068091;28;20980;-79
2022/01/07 01:23:44;;;;;;;24.02;3.95;;;24.40;99.90;;;;;;5075286;28;20193;-80
2022/01/07 01:26:15;;;;;;;18.33;3.67;;;24.50;99.90;;;;;;5071368;28;20254;-81
2022/01/07 01:28:46;;;;;;;27.55;4.57;;;24.60;99.90;;;;;;5064878;28;20216;-80
2022/01/07 01:31:18;;;;;;;24.92;3.85;;;24.70;99.90;;;;;;5066614;28;20689;-80
2022/01/07 01:33:49;;;;;;;22.05;3.75;;;24.70;99.90;;;;;;5072353;28;20196;-80
2022/01/07 01:36:19;;;;;;;24.15;3.95;;;24.80;99.90;;;;;;5080751;28;20207;-80
2022/01/07 01:38:52;;;;;;;23.13;3.80;;;24.80;99.90;;;;;;5066100;28;20600;-81
2022/01/07 01:41:25;;;;;;;24.10;3.70;;;24.80;99.90;;;;;;5081566;28;20208;-79
2022/01/07 01:43:56;;;;;;;25.10;3.67;;;24.80;99.90;;;;;;5074099;28;20587;-80
2022/01/07 01:46:27;;;;;;;23.13;3.78;;;24.80;99.90;;;;;;5079781;28;20203;-79
2022/01/07 01:48:57;;;;;;;23.77;4.22;;;24.80;99.90;;;;;;5070613;28;20228;-78
2022/01/07 01:51:28;;;;;;;25.80;4.00;;;24.90;99.90;;;;;;5071823;28;20204;-80
2022/01/07 01:54:01;;;;;;;22.20;4.03;;;25.00;99.90;;;;;;5074223;28;20197;-79
2022/01/07 01:56:35;;;;;;;20.83;3.35;;;25.10;99.90;;;;;;5054168;28;20201;-79
2022/01/07 01:59:06;;;;;;;26.90;4.35;;;25.20;99.90;;;;;;5067457;28;21682;-79
2022/01/07 02:01:38;;;;;;;24.55;4.25;;;25.30;99.90;;;;;;5062553;28;20194;-79
2022/01/07 02:04:09;;;;;;;22.27;4.30;;;25.50;99.90;;;;;;5060820;28;20233;-79
2022/01/07 02:06:40;;;;;;;22.92;3.72;;;25.60;99.90;;;;;;5062942;28;20192;-78
2022/01/07 02:09:13;;;;;;;19.98;3.60;;;25.70;99.90;;;;;;5074256;28;20204;-79
2022/01/07 02:11:43;;;;;;;20.75;3.45;;;25.70;99.90;;;;;;5065870;28;20200;-78
2022/01/07 02:14:14;;;;;;;18.75;3.78;;;25.80;99.90;;;;;;5072358;28;20602;-80
2022/01/07 02:16:45;;;;;;;21.48;3.50;;;25.70;99.90;;;;;;5069344;28;20222;-79
2022/01/07 02:19:16;;;;;;;24.77;3.95;;;25.70;99.90;;;;;;5073931;28;20198;-80
2022/01/07 02:21:48;;;;;;;20.25;3.60;;;25.60;99.90;;;;;;5067865;28;20196;-79
2022/01/07 02:24:19;;;;;;;21.52;3.65;;;25.50;99.90;;;;;;5063997;28;20200;-80
2022/01/07 02:26:50;;;;;;;23.40;3.50;;;25.40;99.90;;;;;;5071938;28;20205;-81
2022/01/07 02:29:21;;;;;;;23.23;4.03;;;25.30;99.90;;;;;;5071075;28;20198;-79
2022/01/07 02:31:52;;;;;;;26.30;3.60;;;25.20;99.90;;;;;;5071821;28;20203;-80
2022/01/07 02:34:23;;;;;;;29.42;4.30;;;25.10;99.90;;;;;;5067959;28;20201;-80
2022/01/07 02:36:55;;;;;;;23.42;3.83;;;25.10;99.90;;;;;;5066922;28;20566;-78
2022/01/07 02:39:26;;;;;;;20.55;3.75;;;25.10;99.90;;;;;;5073316;28;20224;-79
2022/01/07 02:41:56;;;;;;;19.58;3.42;;;25.00;99.90;;;;;;5070887;28;20614;-82
2022/01/07 02:44:28;;;;;;;20.80;3.85;;;25.00;99.90;;;;;;5083118;28;20189;-80
2022/01/07 02:46:58;;;;;;;22.75;3.83;;;25.00;99.90;;;;;;5076675;28;20292;-80
2022/01/07 02:49:29;;;;;;;26.38;4.28;;;25.10;99.90;;;;;;5068667;28;20205;-79
2022/01/07 02:52:02;;;;;;;21.40;3.67;;;25.20;99.90;;;;;;5068381;28;20193;-83
2022/01/07 02:54:33;;;;;;;23.35;3.83;;;25.30;99.90;;;;;;5070598;28;20592;-80
2022/01/07 02:57:04;;;;;;;23.38;4.13;;;25.30;99.90;;;;;;5066723;28;20584;-81
2022/01/07 02:59:34;;;;;;;23.02;4.00;;;25.20;99.90;;;;;;5066631;28;20237;-81
2022/01/07 03:02:05;;;;;;;24.25;3.67;;;25.20;99.90;;;;;;5062621;28;20204;-83
2022/01/07 03:04:36;;;;;;;21.52;3.85;;;25.20;99.90;;;;;;5067370;28;20197;-80
2022/01/07 03:07:09;;;;;;;27.50;4.50;;;25.20;99.90;;;;;;5072140;28;20192;-80
2022/01/07 03:09:40;;;;;;;25.17;4.28;;;25.30;99.90;;;;;;5081504;28;20197;-81
2022/01/07 03:12:11;;;;;;;29.13;4.22;;;25.40;99.90;;;;;;5070869;28;20660;-80
2022/01/07 03:14:42;;;;;;;23.08;4.78;;;25.40;99.90;;;;;;5070555;28;20235;-80
2022/01/07 03:17:13;;;;;;;25.05;4.20;;;25.40;99.90;;;;;;5070617;28;20188;-80
2022/01/07 03:19:44;;;;;;;27.88;4.00;;;25.50;99.90;;;;;;5070318;28;20191;-79
2022/01/07 03:22:16;;;;;;;25.05;4.15;;;25.60;99.90;;;;;;5072638;28;20204;-79
2022/01/07 03:24:47;;;;;;;26.00;4.10;;;25.60;99.90;;;;;;5075407;28;20203;-81
2022/01/07 03:27:18;;;;;;;20.40;4.32;;;25.90;99.90;;;;;;5057599;28;20193;-80
2022/01/07 03:29:49;;;;;;;23.85;3.80;;;26.10;99.90;;;;;;5070128;28;20199;-78
2022/01/07 03:32:19;;;;;;;25.77;3.92;;;26.30;99.90;;;;;;5067285;28;20238;-79
2022/01/07 03:34:50;;;;;;;19.50;3.38;;;26.70;99.90;;;;;;5062360;28;20627;-78
2022/01/07 03:37:23;;;;;;;21.77;3.67;;;26.90;99.90;;;;;;5071586;28;20571;-82
2022/01/07 03:39:53;;;;;;;22.70;3.97;;;26.90;99.90;;;;;;5071942;28;20234;-81
2022/01/07 03:42:25;;;;;;;27.17;4.30;;;26.80;99.90;;;;;;5056005;28;20722;-80
2022/01/07 03:44:55;;;;;;;19.77;3.58;;;26.70;99.90;;;;;;5073293;28;20193;-80
2022/01/07 03:47:26;;;;;;;22.33;3.45;;;26.60;99.90;;;;;;5070329;28;20197;-79
2022/01/07 03:49:58;;;;;;;19.58;3.63;;;26.60;99.90;;;;;;5072437;28;20189;-81
2022/01/07 03:52:31;;;;;;;21.33;3.65;;;26.50;99.90;;;;;;5074347;28;20201;-80
2022/01/07 03:55:01;;;;;;;21.67;3.63;;;26.40;99.90;;;;;;5069440;28;20267;-80
2022/01/07 03:57:32;;;;;;;19.80;3.40;;;26.30;99.90;;;;;;5079949;28;20200;-79
2022/01/07 04:00:03;;;;;;;20.75;3.67;;;26.40;99.90;;;;;;5069444;28;20274;-81
2022/01/07 04:02:34;;;;;;;17.17;3.50;;;26.30;99.90;;;;;;5068212;28;20671;-80
2022/01/07 04:05:05;;;;;;;23.65;3.75;;;26.30;99.90;;;;;;5070693;28;20201;-80
2022/01/07 04:07:37;;;;;;;17.98;3.42;;;26.30;99.90;;;;;;5061389;28;20563;-82
2022/01/07 04:10:10;;;;;;;21.10;3.70;;;26.10;99.90;;;;;;5076819;28;21391;-83
2022/01/07 04:12:41;;;;;;;22.02;3.25;;;25.90;99.90;;;;;;5062104;28;20662;-79
2022/01/07 04:15:12;;;;;;;21.38;3.70;;;25.80;99.90;;;;;;5064662;28;20602;-81
2022/01/07 04:17:44;;;;;;;21.23;3.50;;;25.80;99.90;;;;;;5066987;28;20219;-79
2022/01/07 04:20:16;;;;;;;24.10;3.95;;;25.70;99.90;;;;;;5071486;28;20211;-80
2022/01/07 04:22:50;;;;;;;21.98;4.07;;;25.80;99.90;;;;;;5081908;28;20185;-80
2022/01/07 04:25:22;;;;;;;18.80;3.65;;;25.80;99.90;;;;;;5077728;28;20196;-78
2022/01/07 04:27:54;;;;;;;27.23;4.53;;;25.90;99.90;;;;;;5079232;28;20213;-82
2022/01/07 04:30:26;;;;;;;23.92;3.97;;;25.90;99.90;;;;;;5083623;28;20641;-80
2022/01/07 04:32:57;;;;;;;23.10;3.60;;;26.00;99.90;;;;;;5082632;28;20593;-80
2022/01/07 04:35:29;;;;;;;22.52;3.75;;;26.00;99.90;;;;;;5079798;28;20189;-78
2022/01/07 04:38:03;;;;;;;26.80;4.57;;;25.90;99.90;;;;;;5086717;28;20199;-78
2022/01/07 04:40:34;;;;;;;25.02;4.00;;;25.80;99.90;;;;;;5074949;28;20190;-78
2022/01/07 04:43:08;;;;;;;24.95;3.90;;;25.70;99.90;;;;;;5079109;28;20231;-79
2022/01/07 04:45:39;;;;;;;23.73;3.97;;;25.60;99.90;;;;;;5073772;28;20185;-78
2022/01/07 04:48:10;;;;;;;22.20;4.28;;;25.60;99.90;;;;;;5076739;28;20213;-79
2022/01/07 04:50:41;;;;;;;25.65;4.60;;;25.70;99.90;;;;;;5076475;28;20192;-79
2022/01/07 04:53:14;;;;;;;24.92;4.18;;;25.80;99.90;;;;;;5080904;28;20188;-79
2022/01/07 04:55:45;;;;;;;31.88;4.53;;;25.90;99.90;;;;;;5095226;28;20203;-79
2022/01/07 04:58:20;;;;;;;24.42;4.13;;;25.90;99.90;;;;;;5078886;28;20197;-80
2022/01/07 05:00:51;;;;;;;26.80;4.15;;;25.90;99.90;;;;;;5077019;28;20184;-81
2022/01/07 05:03:22;;;;;;;21.95;4.10;;;25.90;99.90;;;;;;5067615;28;20189;-80
2022/01/07 05:06:03;;;;;;;28.85;4.82;;;25.70;99.90;;;;;;5059993;28;20202;-81
2022/01/07 05:08:36;;;;;;;26.55;4.68;;;25.60;99.90;;;;;;5055828;28;20213;-80
2022/01/07 05:11:07;;;;;;;25.30;4.07;;;25.60;99.90;;;;;;5061959;28;20666;-79
2022/01/07 05:13:38;;;;;;;30.38;4.57;;;25.50;99.90;;;;;;5059507;28;20229;-79
2022/01/07 05:16:09;;;;;;;27.90;5.00;;;25.50;99.90;;;;;;5060588;28;20199;-79
2022/01/07 05:18:40;;;;;;;25.95;4.43;;;25.50;99.90;;;;;;5068784;28;20190;-79
2022/01/07 05:21:11;;;;;;;29.40;4.55;;;25.50;99.90;;;;;;5056180;28;20197;-80
2022/01/07 05:23:44;;;;;;;28.33;4.70;;;25.40;99.90;;;;;;5064626;28;20224;-78
2022/01/07 05:26:15;;;;;;;27.42;4.05;;;25.50;99.90;;;;;;5065134;28;20194;-79
2022/01/07 05:28:46;;;;;;;23.10;4.00;;;25.50;99.90;;;;;;5065148;28;20680;-80
2022/01/07 05:31:16;;;;;;;26.73;4.97;;;25.40;99.90;;;;;;5066606;28;20188;-80
2022/01/07 05:33:47;;;;;;;29.48;4.75;;;25.50;99.90;;;;;;5055611;28;20202;-78
2022/01/07 05:36:18;;;;;;;26.23;4.60;;;25.40;99.90;;;;;;5064818;28;20231;-78
2022/01/07 05:38:51;;;;;;;28.35;4.78;;;25.40;99.90;;;;;;5085556;28;20220;-85
2022/01/07 05:41:23;;;;;;;24.20;4.03;;;25.40;99.90;;;;;;5069323;28;20189;-80
2022/01/07 05:43:55;;;;;;;34.40;4.93;;;25.40;99.90;;;;;;5057837;28;20209;-79
2022/01/07 05:46:26;;;;;;;25.75;4.47;;;25.40;99.90;;;;;;5054960;28;20529;-78
2022/01/07 05:48:58;;;;;;;26.65;4.90;;;25.30;99.90;;;;;;5056110;28;20213;-78
2022/01/07 05:51:31;;;;;;;25.05;4.78;;;25.20;99.90;;;;;;5073109;28;20272;-77
2022/01/07 05:54:04;;;;;;;31.88;4.40;;;25.20;99.90;;;;;;5074246;28;20189;-78
2022/01/07 05:56:34;;;;;;;29.50;4.65;;;25.20;99.90;;;;;;5071720;28;20190;-78
2022/01/07 05:59:05;;;;;;;27.58;4.40;;;25.20;99.90;;;;;;5067010;28;20212;-77
2022/01/07 06:01:36;;;;;;;29.73;4.28;;;25.20;99.90;;;;;;5056436;28;20527;-77
2022/01/07 06:04:07;;;;;;;27.40;4.68;;;25.20;99.90;;;;;;5062679;28;20637;-78
2022/01/07 06:06:38;;;;;;;30.33;4.97;;;25.10;99.90;;;;;;5064299;28;20197;-79
2022/01/07 06:09:13;;;;;;;25.30;4.30;;;25.00;99.90;;;;;;5055548;28;20332;-79
2022/01/07 06:11:45;;;;;;;23.42;4.43;;;25.10;99.90;;;;;;5056096;28;20631;-79
2022/01/07 06:14:16;;;;;;;29.17;4.93;;;25.10;99.90;;;;;;5061711;28;20594;-78
2022/01/07 06:16:47;;;;;;;28.50;4.70;;;25.20;99.90;;;;;;5054447;28;20194;-81
2022/01/07 06:19:18;;;;;;;26.92;4.15;;;25.20;99.90;;;;;;5074424;28;20196;-79
2022/01/07 06:21:49;;;;;;;26.92;4.63;;;25.10;99.90;;;;;;5082379;28;20200;-79
2022/01/07 06:24:22;;;;;;;25.80;4.18;;;25.10;99.90;;;;;;5086572;28;20188;-80
2022/01/07 06:26:52;;;;;;;25.67;4.60;;;25.10;99.90;;;;;;5089880;28;20195;-80
2022/01/07 06:29:29;;;;;;;29.50;4.55;;;25.10;99.90;;;;;;5083582;28;20269;-81
2022/01/07 06:32:02;;;;;;;26.42;4.45;;;25.10;99.90;;;;;;5057142;28;20189;-79
2022/01/07 06:34:32;;;;;;;28.30;4.88;;;25.10;99.90;;;;;;5073750;28;20234;-77
2022/01/07 06:37:04;;;;;;;27.73;4.53;;;25.00;99.90;;;;;;5053691;28;20197;-80
2022/01/07 06:39:37;;;;;;;24.23;4.88;;;25.00;99.90;;;;;;5061906;28;20213;-80
2022/01/07 06:42:08;;;;;;;29.80;4.93;;;25.00;99.90;;;;;;5073055;28;20243;-78
2022/01/07 06:44:39;;;;;;;25.33;4.47;;;25.00;99.90;;;;;;5089822;28;20638;-78
2022/01/07 06:47:10;;;;;;;30.70;4.72;;;25.10;99.90;;;;;;5072411;28;20193;-78
2022/01/07 06:49:41;;;;;;;32.90;4.85;;;25.10;99.90;;;;;;5077204;28;20227;-78
2022/01/07 06:52:14;;;;;;;32.17;5.18;;;25.00;99.90;;;;;;5073686;28;20201;-82
2022/01/07 06:54:47;;;;;;;24.85;4.65;;;25.00;99.90;;;;;;5073765;28;20227;-77
2022/01/07 06:57:18;;;;;;;26.80;4.97;;;25.00;99.90;;;;;;5083198;28;20184;-80
2022/01/07 06:59:49;;;;;;;33.30;5.20;;;25.00;99.90;;;;;;5077431;28;20186;-78
2022/01/07 07:02:24;;;;;;;32.33;5.15;;;25.00;99.90;;;;;;5072972;28;20527;-80
2022/01/07 07:04:56;;;;;;;28.27;4.45;;;25.00;99.90;;;;;;5079046;28;20228;-80
2022/01/07 07:07:28;;;;;;;29.08;4.80;;;24.90;99.90;;;;;;5078503;28;20180;-80
2022/01/07 07:10:04;;;;;;;30.27;4.95;;;24.90;99.90;;;;;;5078240;28;20225;-80
2022/01/07 07:12:35;;;;;;;29.90;4.60;;;24.90;99.90;;;;;;5072275;28;20264;-82
2022/01/07 07:15:06;;;;;;;30.77;4.40;;;24.90;99.90;;;;;;5077016;28;20231;-79
2022/01/07 07:17:36;;;;;;;30.08;4.30;;;24.90;99.90;;;;;;5084298;28;20233;-78
2022/01/07 07:20:09;;;;;;;27.38;4.53;;;24.90;99.90;;;;;;5075695;28;20557;-81
2022/01/07 07:22:42;;;;;;;23.05;4.45;;;24.90;99.90;;;;;;5082594;28;20192;-80
2022/01/07 07:25:15;;;;;;;31.27;5.07;;;24.90;99.90;;;;;;5089590;28;20189;-80
2022/01/07 07:27:46;;;;;;;24.80;4.30;;;24.80;99.90;;;;;;5088432;28;20187;-80
2022/01/07 07:30:18;;;;;;;24.05;4.40;;;24.80;99.90;;;;;;5053070;28;20308;-80
2022/01/07 07:32:53;;;;;;;33.55;4.90;;;24.80;99.90;;;;;;5069528;28;20621;-80
2022/01/07 07:38:08;;;;;;;25.00;4.82;;;24.80;99.90;;;;;;5058101;28;20589;-79
2022/01/07 07:40:42;;;;;;;26.52;4.38;;;24.90;99.90;;;;;;5076997;28;20557;-80
2022/01/07 07:43:13;;;;;;;25.42;4.65;;;24.80;99.90;;;;;;5085392;28;20188;-81
2022/01/07 07:45:47;;;;;;;28.42;4.65;;;24.80;99.90;;;;;;5073622;28;20189;-79
2022/01/07 07:48:21;;;;;;;29.80;4.45;;;24.80;99.90;;;;;;5085399;28;20267;-79
2022/01/07 07:50:51;;;;;;;27.85;4.35;;;24.80;99.90;;;;;;5078593;28;20668;-85
2022/01/07 07:53:22;;;;;;;33.55;5.35;;;24.70;99.90;;;;;;5075215;28;20185;-78
2022/01/07 07:55:55;;;;;;;31.27;5.07;;;24.60;99.90;;;;;;5075362;28;20197;-78
2022/01/07 07:58:28;;;;;;;33.05;5.25;;;24.60;99.90;;;;;;5082960;28;20234;-79
2022/01/07 08:01:00;;;;;;;26.15;5.72;;;24.60;99.90;;;;;;5096981;28;20279;-77
2022/01/07 08:03:32;;;;;;;27.05;4.82;;;24.50;99.90;;;;;;5088306;28;20191;-78
2022/01/07 08:06:03;;;;;;;27.60;4.35;;;24.50;99.90;;;;;;5095093;28;20661;-78
2022/01/07 08:08:34;;;;;;;32.17;4.97;;;24.50;99.90;;;;;;5085708;28;20268;-80
2022/01/07 08:11:12;;;;;;;24.02;4.47;;;24.40;99.90;;;;;;5086485;28;20212;-77
2022/01/07 08:16:32;;;;;;;28.00;4.90;;;24.40;99.90;;;;;;5084371;28;20243;-77
2022/01/07 08:19:04;;;;;;;23.17;4.38;;;24.40;99.90;;;;;;5085428;28;20284;-79
2022/01/07 08:21:35;;;;;;;27.95;5.18;;;24.30;99.90;;;;;;5083880;28;20273;-80
2022/01/07 08:24:07;;;;;;;28.60;4.63;;;24.30;99.90;;;;;;5090530;28;20189;-78
2022/01/07 08:26:41;;;;;;;29.98;5.53;;;24.30;99.90;;;;;;5068031;28;20224;-80
2022/01/07 08:29:13;;;;;;;34.72;5.03;;;24.30;99.90;;;;;;5078229;28;20231;-79
2022/01/07 08:37:25;;;;;;;30.80;5.18;;;24.20;99.90;;;;;;5085825;28;20670;-79
2022/01/07 08:39:58;;;;;;;30.02;4.97;;;24.20;99.90;;;;;;5066593;28;20647;-80
2022/01/07 08:42:36;;;;;;;27.08;4.85;;;24.20;99.90;;;;;;5061587;28;20721;-78
2022/01/07 08:45:09;;;;;;;26.35;4.80;;;24.10;99.90;;;;;;5091910;28;20560;-78
2022/01/07 08:47:47;;;;;;;29.33;4.55;;;24.10;99.90;;;;;;5084472;28;20671;-77
2022/01/07 08:50:18;;;;;;;31.60;5.00;;;24.10;99.90;;;;;;5089032;28;20630;-79
2022/01/07 08:52:50;;;;;;;25.63;4.80;;;24.10;99.90;;;;;;5075777;28;20196;-78
2022/01/07 08:55:21;;;;;;;28.98;5.03;;;24.10;99.90;;;;;;5064316;28;20181;-78
2022/01/07 08:57:54;;;;;;;22.63;5.07;;;24.10;99.90;;;;;;5075914;28;20259;-79
2022/01/07 09:00:25;;;;;;;24.35;4.68;;;24.10;99.90;;;;;;5085203;28;20194;-81
2022/01/07 09:02:55;;;;;;;29.80;5.32;;;24.00;99.90;;;;;;5066817;28;20656;-80
2022/01/07 09:05:26;;;;;;;33.42;5.00;;;24.10;99.90;;;;;;5089480;28;20185;-78
2022/01/07 09:08:06;;;;;;;27.92;4.35;;;24.00;99.90;;;;;;5086251;28;20195;-84
2022/01/07 09:10:38;;;;;;;27.60;4.93;;;24.00;99.90;;;;;;5091667;28;20214;-77
2022/01/07 09:13:20;;;;;;;28.77;4.60;;;24.10;99.90;;;;;;5089490;28;20223;-78
2022/01/07 09:15:54;;;;;;;26.55;4.30;;;24.10;99.90;;;;;;5071465;28;20193;-78
2022/01/07 09:18:26;;;;;;;24.02;4.50;;;24.00;99.90;;;;;;5075780;28;20185;-79
2022/01/07 09:20:56;;;;;;;30.33;5.03;;;24.00;99.90;;;;;;5074701;28;20656;-79
2022/01/07 09:23:31;;;;;;;26.85;5.22;;;24.10;99.90;;;;;;5067975;28;20207;-77
2022/01/07 09:26:02;;;;;;;31.98;5.50;;;24.00;99.90;;;;;;5075118;28;20188;-79
2022/01/07 09:28:36;;;;;;;33.60;5.30;;;24.00;99.90;;;;;;5076578;28;20649;-80
2022/01/07 09:31:07;;;;;;;32.92;4.93;;;24.00;99.90;;;;;;5075118;28;20270;-78
2022/01/07 09:33:38;;;;;;;22.83;4.50;;;24.00;99.90;;;;;;5075501;28;20192;-78
2022/01/07 09:36:09;;;;;;;26.65;5.25;;;24.00;99.90;;;;;;5081336;28;20228;-80
2022/01/07 09:38:46;;;;;;;25.92;4.78;;;24.00;99.90;;;;;;5076589;28;20244;-79
2022/01/07 09:41:17;;;;;;;27.13;4.95;;;24.00;99.90;;;;;;5087629;28;20237;-78
2022/01/07 09:43:54;;;;;;;25.02;4.57;;;24.00;99.90;;;;;;5074855;28;20196;-77
2022/01/07 09:46:25;;;;;;;29.52;4.53;;;24.00;99.90;;;;;;5077249;28;20199;-79
2022/01/07 09:48:56;;;;;;;22.85;4.72;;;24.00;99.90;;;;;;5067021;28;20229;-80
2022/01/07 09:51:30;;;;;;;35.38;5.05;;;24.00;99.90;;;;;;5066924;28;21377;-77
2022/01/07 09:54:08;;;;;;;29.75;4.93;;;24.00;99.90;;;;;;5064626;28;20239;-78
2022/01/07 09:56:40;;;;;;;27.95;4.57;;;24.00;99.90;;;;;;5064457;28;20212;-77
2022/01/07 09:59:13;;;;;;;28.45;4.78;;;23.90;99.90;;;;;;5067972;28;20211;-78
2022/01/07 10:02:00;;;;;;;26.05;4.63;;;23.90;99.90;;;;;;5067792;28;20205;-79
2022/01/07 10:04:35;;;;;;;28.63;4.57;;;23.90;99.90;;;;;;5064975;28;20220;-78
2022/01/07 10:07:23;;;;;;;28.38;4.85;;;23.90;99.90;;;;;;5067616;28;20193;-77
2022/01/07 10:10:06;;;;;;;24.30;4.32;;;23.90;99.90;;;;;;5066870;28;20705;-78
2022/01/07 10:12:52;;;;;;;28.33;4.90;;;23.90;99.90;;;;;;5067026;28;20200;-79
2022/01/07 10:15:37;;;;;;;27.50;5.32;;;23.90;99.90;;;;;;5066737;28;20256;-77
2022/01/07 10:18:16;;;;;;;30.25;4.70;;;23.90;99.90;;;;;;5078768;28;20196;-78
2022/01/07 10:20:48;;;;;;;30.02;4.75;;;23.90;99.90;;;;;;5089823;28;20271;-77
2022/01/07 10:23:24;;;;;;;27.17;4.57;;;23.90;99.90;;;;;;5072537;28;20559;-78
2022/01/07 10:25:57;;;;;;;25.38;4.85;;;23.80;99.90;;;;;;5074489;28;20199;-77
2022/01/07 10:28:34;;;;;;;27.23;4.95;;;23.80;99.90;;;;;;5074113;28;20197;-77
2022/01/07 10:31:11;;;;;;;24.88;5.05;;;23.80;99.90;;;;;;5067756;28;20240;-78
2022/01/07 10:33:44;;;;;;;28.73;4.85;;;23.80;99.90;;;;;;5085740;28;20249;-77
2022/01/07 10:36:22;;;;;;;30.17;4.70;;;23.80;99.90;;;;;;5073815;28;20197;-79
2022/01/07 10:38:57;;;;;;;27.40;5.13;;;23.70;99.90;;;;;;5069862;28;20220;-78
2022/01/07 10:41:28;;;;;;;26.80;4.78;;;23.70;99.90;;;;;;5084390;28;20188;-77
2022/01/07 10:44:08;;;;;;;36.05;5.15;;;23.70;99.90;;;;;;5078367;28;20192;-78
2022/01/07 10:46:41;;;;;;;35.80;5.63;;;23.70;99.90;;;;;;5076273;28;20293;-77
2022/01/07 10:49:12;;;;;;;31.25;5.30;;;23.70;99.90;;;;;;5083429;28;20253;-77
2022/01/07 10:51:56;;;;;;;25.33;4.75;;;23.70;99.90;;;;;;5076496;28;20215;-78
2022/01/07 10:54:29;;;;;;;26.90;4.68;;;23.70;99.90;;;;;;5076346;28;20188;-76
2022/01/07 10:57:11;;;;;;;28.95;5.15;;;23.70;99.90;;;;;;5087163;28;20288;-77
2022/01/07 10:59:42;;;;;;;31.73;5.22;;;23.70;99.90;;;;;;5085129;28;20266;-78
2022/01/07 11:02:15;;;;;;;32.30;5.13;;;23.70;99.90;;;;;;5083266;28;20192;-77
2022/01/07 11:04:46;;;;;;;26.42;5.45;;;23.70;99.90;;;;;;5073638;28;20203;-78
2022/01/07 11:07:16;;;;;;;34.42;5.03;;;23.70;99.90;;;;;;5087607;28;20200;-77
2022/01/07 11:09:48;;;;;;;31.92;5.53;;;23.70;99.90;;;;;;5073030;28;20185;-77
2022/01/07 11:12:20;;;;;;;30.85;5.50;;;23.70;99.90;;;;;;5073629;28;20189;-76
2022/01/07 11:14:50;;;;;;;32.78;5.15;;;23.70;99.90;;;;;;5073187;28;20236;-76
2022/01/07 11:17:23;;;;;;;31.95;5.43;;;23.70;99.90;;;;;;5072962;28;20561;-80
2022/01/07 11:19:56;;;;;;;35.00;5.97;;;23.70;99.90;;;;;;5072452;28;20284;-76
2022/01/07 11:22:32;;;;;;;28.92;5.40;;;23.60;99.90;;;;;;5083207;28;20189;-78
2022/01/07 11:25:14;;;;;;;29.65;5.22;;;23.70;99.90;;;;;;5075344;28;20189;-78
2022/01/07 11:27:54;;;;;;;31.73;4.80;;;23.60;99.90;;;;;;5080675;28;20192;-77
2022/01/07 11:30:28;;;;;;;29.52;4.90;;;23.60;99.90;;;;;;5073804;28;20219;-76
2022/01/07 11:33:16;;;;;;;37.22;5.22;;;23.60;99.90;;;;;;5078444;28;20216;-76
2022/01/07 11:35:48;;;;;;;26.33;5.40;;;23.60;99.90;;;;;;5074369;28;20204;-76
2022/01/07 11:38:43;;;;;;;29.45;5.20;;;23.60;99.90;;;;;;5072614;28;20705;-77
2022/01/07 11:41:39;;;;;;;32.00;5.07;;;23.60;99.90;;;;;;5071015;28;20688;-77
2022/01/07 11:44:17;;;;;;;36.25;5.22;;;23.70;99.90;;;;;;5068131;28;20255;-76
2022/01/07 11:46:51;;;;;;;34.25;5.30;;;23.60;99.90;;;;;;5078786;28;20591;-77
2022/01/07 11:49:37;;;;;;;25.00;4.93;;;23.60;99.90;;;;;;5081734;28;20208;-77
2022/01/07 11:52:32;;;;;;;28.88;5.28;;;23.60;99.90;;;;;;5072549;28;20251;-75
2022/01/07 11:55:28;;;;;;;30.40;4.68;;;23.60;99.90;;;;;;5077558;28;20552;-77
2022/01/07 11:58:01;;;;;;;35.05;4.88;;;23.60;99.90;;;;;;5075053;28;20192;-77
2022/01/07 12:00:51;;;;;;;28.13;4.82;;;23.60;99.90;;;;;;5063430;28;20538;-77
2022/01/07 12:03:40;;;;;;;26.67;5.40;;;23.60;99.90;;;;;;5052764;28;20197;-76
2022/01/07 12:06:46;;;;;;;29.00;4.70;;;23.60;99.90;;;;;;5069386;28;20193;-77
2022/01/07 12:09:26;;;;;;;32.63;5.07;;;23.60;99.90;;;;;;5089590;28;20675;-77
2022/01/07 12:12:00;;;;;;;29.73;4.90;;;23.60;99.90;;;;;;5075617;28;20215;-78
2022/01/07 12:14:36;;;;;;;25.58;5.00;;;23.60;99.90;;;;;;5072399;28;20228;-78
2022/01/07 12:17:18;;;;;;;25.85;4.70;;;23.60;99.90;;;;;;5072843;28;20200;-77
2022/01/07 12:20:20;;;;;;;26.20;4.68;;;23.60;99.90;;;;;;5085987;28;20556;-78
2022/01/07 12:22:59;;;;;;;23.67;4.60;;;23.60;99.90;;;;;;5072013;28;20276;-77
2022/01/07 12:25:31;;;;;;;27.02;4.88;;;23.60;99.90;;;;;;5072601;28;20235;-76
2022/01/07 12:28:09;;;;;;;27.95;4.40;;;23.60;99.90;;;;;;5072716;28;20189;-77
2022/01/07 12:30:41;;;;;;;25.70;5.10;;;23.60;99.90;;;;;;5075757;28;20217;-78
2022/01/07 12:33:13;;;;;;;24.48;4.50;;;23.60;99.90;;;;;;5072628;28;20247;-77
2022/01/07 12:35:44;;;;;;;27.45;5.00;;;23.60;99.90;;;;;;5075735;28;20283;-77
2022/01/07 12:38:19;;;;;;;22.42;4.22;;;23.60;99.90;;;;;;5075382;28;20217;-78
2022/01/07 12:41:01;;;;;;;25.67;4.43;;;23.60;99.90;;;;;;5073192;28;20196;-79
2022/01/07 12:43:38;;;;;;;18.88;4.43;;;23.60;99.90;;;;;;5078724;28;20181;-77
2022/01/07 12:46:10;;;;;;;26.92;4.45;;;23.60;99.90;;;;;;5080272;28;20207;-77
2022/01/07 12:48:43;;;;;;;25.15;4.30;;;23.60;99.90;;;;;;5086603;28;20185;-78
2022/01/07 12:51:14;;;;;;;29.70;5.03;;;23.60;99.90;;;;;;5065099;28;20221;-78
2022/01/07 12:53:58;;;;;;;11.90;2.40;;;23.60;99.90;;;;;;5075496;28;20288;-76
2022/01/07 12:56:33;;;;;;;10.38;2.28;;;23.60;99.90;;;;;;5079122;28;20644;-77
2022/01/07 12:59:13;;;;;;;8.77;2.40;;;23.40;99.90;;;;;;5084309;28;20189;-77
2022/01/07 13:01:47;;;;;;;8.93;2.42;;;23.20;99.90;;;;;;5084342;28;20191;-77
2022/01/07 13:04:20;;;;;;;7.75;1.70;;;23.10;99.90;;;;;;5088536;28;20656;-81
2022/01/07 13:06:53;;;;;;;7.43;1.40;;;22.80;99.90;;;;;;5082622;28;20193;-80
2022/01/07 13:09:25;;;;;;;3.92;1.00;;;22.60;99.90;;;;;;5083884;28;20590;-84
2022/01/07 13:12:02;;;;;;;2.50;0.80;;;22.20;99.90;;;;;;5082132;28;20224;-78
2022/01/07 13:14:34;;;;;;;1.83;0.68;;;21.90;99.90;;;;;;5075206;28;20320;-85
2022/01/07 13:17:10;;;;;;;2.63;0.70;;;21.60;99.90;;;;;;5055663;28;20593;-85
2022/01/07 13:19:49;;;;;;;1.30;0.65;;;21.40;99.90;;;;;;5079543;28;20200;-82